sensor_id;sensor_type;location;lat;lon;timestamp;pressure;altitude;pressure_sealevel;temperature;humidity
22047;BME280;11187;49.412;20.956;2022-09-28T00:00:31;93507.69;;;10.19;100.00
22047;BME280;11187;49.412;20.956;2022-09-28T00:03:28;93509.47;;;10.17;100.00
22047;BME280;11187;49.412;20.956;2022-09-28T00:06:23;93515.50;;;10.16;100.00
22047;BME280;11187;49.412;20.956;2022-09-28T00:08:57;93509.47;;;10.17;100.00
22047;BME280;11187;49.412;20.956;2022-09-28T00:11:52;93518.00;;;10.17;100.00
22047;BME280;11187;49.412;20.956;2022-09-28T00:14:46;93515.34;;;10.19;100.00
22047;BME280;11187;49.412;20.956;2022-09-28T00:17:19;93506.72;;;10.21;100.00
22047;BME280;11187;49.412;20.956;2022-09-28T00:20:06;93495.59;;;10.22;100.00
22047;BME280;11187;49.412;20.956;2022-09-28T00:22:39;93498.97;;;10.23;100.00
22047;BME280;11187;49.412;20.956;2022-09-28T00:25:33;93496.44;;;10.23;100.00
22047;BME280;11187;49.412;20.956;2022-09-28T00:28:27;93498.16;;;10.22;100.00
22047;BME280;11187;49.412;20.956;2022-09-28T00:31:00;93493.03;;;10.22;100.00
22047;BME280;11187;49.412;20.956;2022-09-28T00:33:54;93493.16;;;10.19;100.00
22047;BME280;11187;49.412;20.956;2022-09-28T00:36:50;93495.22;;;10.11;100.00
22047;BME280;11187;49.412;20.956;2022-09-28T00:39:23;93504.69;;;10.09;100.00
22047;BME280;11187;49.412;20.956;2022-09-28T00:42:23;93509.16;;;10.04;100.00
22047;BME280;11187;49.412;20.956;2022-09-28T00:45:18;93517.91;;;9.98;100.00
22047;BME280;11187;49.412;20.956;2022-09-28T00:48:12;93524.81;;;9.96;100.00
22047;BME280;11187;49.412;20.956;2022-09-28T00:51:08;93524.91;;;9.95;100.00
22047;BME280;11187;49.412;20.956;2022-09-28T00:53:44;93517.16;;;9.96;100.00
22047;BME280;11187;49.412;20.956;2022-09-28T00:56:33;93520.63;;;9.95;100.00
22047;BME280;11187;49.412;20.956;2022-09-28T00:59:08;93523.28;;;9.92;100.00
22047;BME280;11187;49.412;20.956;2022-09-28T01:01:56;93523.28;;;9.92;100.00
22047;BME280;11187;49.412;20.956;2022-09-28T01:04:29;93501.03;;;9.94;100.00
22047;BME280;11187;49.412;20.956;2022-09-28T01:07:17;93490.75;;;9.96;100.00
22047;BME280;11187;49.412;20.956;2022-09-28T01:09:50;93474.78;;;9.91;100.00
22047;BME280;11187;49.412;20.956;2022-09-28T01:12:37;93487.63;;;9.89;100.00
22047;BME280;11187;49.412;20.956;2022-09-28T01:15:13;93494.47;;;9.89;100.00
22047;BME280;11187;49.412;20.956;2022-09-28T01:18:12;93498.75;;;9.88;100.00
22047;BME280;11187;49.412;20.956;2022-09-28T01:21:18;93487.88;;;9.83;100.00
22047;BME280;11187;49.412;20.956;2022-09-28T01:24:46;93488.91;;;9.79;100.00
22047;BME280;11187;49.412;20.956;2022-09-28T01:28:03;93486.59;;;9.73;100.00
22047;BME280;11187;49.412;20.956;2022-09-28T01:31:14;93482.47;;;9.70;100.00
22047;BME280;11187;49.412;20.956;2022-09-28T01:33:53;93481.69;;;9.68;100.00
22047;BME280;11187;49.412;20.956;2022-09-28T01:36:46;93491.19;;;9.65;100.00
22047;BME280;11187;49.412;20.956;2022-09-28T01:39:35;93483.59;;;9.63;100.00
22047;BME280;11187;49.412;20.956;2022-09-28T01:42:32;93477.97;;;9.55;100.00
22047;BME280;11187;49.412;20.956;2022-09-28T01:45:40;93489.53;;;9.43;100.00
22047;BME280;11187;49.412;20.956;2022-09-28T01:48:20;93494.84;;;9.37;100.00
22047;BME280;11187;49.412;20.956;2022-09-28T01:51:15;93489.06;;;9.33;100.00
22047;BME280;11187;49.412;20.956;2022-09-28T01:53:52;93489.22;;;9.29;100.00
22047;BME280;11187;49.412;20.956;2022-09-28T01:56:45;93485.84;;;9.28;100.00
22047;BME280;11187;49.412;20.956;2022-09-28T01:59:26;93496.97;;;9.27;100.00
22047;BME280;11187;49.412;20.956;2022-09-28T02:02:24;93494.41;;;9.27;100.00
22047;BME280;11187;49.412;20.956;2022-09-28T02:05:04;93492.66;;;9.28;100.00
22047;BME280;11187;49.412;20.956;2022-09-28T02:08:09;93504.53;;;9.29;100.00
22047;BME280;11187;49.412;20.956;2022-09-28T02:11:12;93509.81;;;9.24;100.00
22047;BME280;11187;49.412;20.956;2022-09-28T02:14:09;93514.28;;;9.19;100.00
22047;BME280;11187;49.412;20.956;2022-09-28T02:16:46;93518.56;;;9.18;100.00
22047;BME280;11187;49.412;20.956;2022-09-28T02:19:34;93519.47;;;9.17;100.00
22047;BME280;11187;49.412;20.956;2022-09-28T02:25:07;93532.94;;;9.21;100.00
22047;BME280;11187;49.412;20.956;2022-09-28T02:27:52;93532.97;;;9.19;100.00
22047;BME280;11187;49.412;20.956;2022-09-28T02:30:48;93533.06;;;9.18;100.00
22047;BME280;11187;49.412;20.956;2022-09-28T02:33:42;93528.81;;;9.17;100.00
22047;BME280;11187;49.412;20.956;2022-09-28T02:36:16;93532.34;;;9.14;100.00
22047;BME280;11187;49.412;20.956;2022-09-28T02:39:03;93536.63;;;9.14;100.00
22047;BME280;11187;49.412;20.956;2022-09-28T02:44:45;93552.72;;;9.16;100.00
22047;BME280;11187;49.412;20.956;2022-09-28T02:47:55;93551.63;;;9.22;100.00
22047;BME280;11187;49.412;20.956;2022-09-28T02:56:47;93569.28;;;9.28;100.00
22047;BME280;11187;49.412;20.956;2022-09-28T03:00:04;93564.94;;;9.30;100.00
22047;BME280;11187;49.412;20.956;2022-09-28T03:12:09;93565.56;;;9.36;100.00
22047;BME280;11187;49.412;20.956;2022-09-28T03:15:26;93568.88;;;9.38;100.00
22047;BME280;11187;49.412;20.956;2022-09-28T03:18:00;93558.03;;;9.33;100.00
22047;BME280;11187;49.412;20.956;2022-09-28T03:20:47;93558.16;;;9.29;100.00
22047;BME280;11187;49.412;20.956;2022-09-28T03:23:21;93548.97;;;9.25;100.00
22047;BME280;11187;49.412;20.956;2022-09-28T03:26:12;93554.25;;;9.20;100.00
22047;BME280;11187;49.412;20.956;2022-09-28T03:28:45;93550.94;;;9.18;100.00
22047;BME280;11187;49.412;20.956;2022-09-28T03:31:32;93547.59;;;9.16;100.00
22047;BME280;11187;49.412;20.956;2022-09-28T03:34:05;93556.03;;;9.18;100.00
22047;BME280;11187;49.412;20.956;2022-09-28T03:36:52;93550.94;;;9.18;100.00
22047;BME280;11187;49.412;20.956;2022-09-28T03:39:25;93550.03;;;9.19;100.00
22047;BME280;11187;49.412;20.956;2022-09-28T03:42:19;93549.94;;;9.22;100.00
22047;BME280;11187;49.412;20.956;2022-09-28T03:45:13;93544.69;;;9.25;100.00
22047;BME280;11187;49.412;20.956;2022-09-28T03:48:07;93546.44;;;9.25;100.00
22047;BME280;11187;49.412;20.956;2022-09-28T03:50:40;93545.69;;;9.21;100.00
22047;BME280;11187;49.412;20.956;2022-09-28T03:53:35;93550.16;;;9.16;100.00
22047;BME280;11187;49.412;20.956;2022-09-28T03:56:29;93549.44;;;9.12;100.00
22047;BME280;11187;49.412;20.956;2022-09-28T03:59:03;93552.72;;;9.16;100.00
22047;BME280;11187;49.412;20.956;2022-09-28T04:01:50;93556.88;;;9.18;100.00
22047;BME280;11187;49.412;20.956;2022-09-28T04:04:23;93551.63;;;9.22;100.00
22047;BME280;11187;49.412;20.956;2022-09-28T04:07:10;93562.56;;;9.25;100.00
22047;BME280;11187;49.412;20.956;2022-09-28T04:09:43;93561.66;;;9.26;100.00
22047;BME280;11187;49.412;20.956;2022-09-28T04:12:30;93572.75;;;9.27;100.00
22047;BME280;11187;49.412;20.956;2022-09-28T04:15:04;93568.50;;;9.26;100.00
22047;BME280;11187;49.412;20.956;2022-09-28T04:17:50;93571.06;;;9.26;100.00
22047;BME280;11187;49.412;20.956;2022-09-28T04:20:23;93564.31;;;9.25;100.00
22047;BME280;11187;49.412;20.956;2022-09-28T04:23:10;93562.63;;;9.24;100.00
22047;BME280;11187;49.412;20.956;2022-09-28T04:25:50;93559.38;;;9.20;100.00
22047;BME280;11187;49.412;20.956;2022-09-28T04:28:37;93568.97;;;9.13;100.00
22047;BME280;11187;49.412;20.956;2022-09-28T04:31:47;93575.97;;;9.08;100.00
22047;BME280;11187;49.412;20.956;2022-09-28T04:34:35;93576.03;;;9.07;100.00
22047;BME280;11187;49.412;20.956;2022-09-28T04:37:10;93587.97;;;9.06;100.00
22047;BME280;11187;49.412;20.956;2022-09-28T04:40:03;93582.88;;;9.06;100.00
22047;BME280;11187;49.412;20.956;2022-09-28T04:42:36;93584.53;;;9.07;100.00
22047;BME280;11187;49.412;20.956;2022-09-28T04:45:30;93589.81;;;9.03;100.00
22047;BME280;11187;49.412;20.956;2022-09-28T04:48:24;93593.31;;;9.00;100.00
22047;BME280;11187;49.412;20.956;2022-09-28T04:51:01;93588.31;;;8.97;100.00
22047;BME280;11187;49.412;20.956;2022-09-28T04:53:55;93591.69;;;8.97;100.00
22047;BME280;11187;49.412;20.956;2022-09-28T04:56:28;93589.97;;;8.98;100.00
22047;BME280;11187;49.412;20.956;2022-09-28T04:59:15;93587.41;;;8.98;100.00
22047;BME280;11187;49.412;20.956;2022-09-28T05:01:48;93581.50;;;8.97;100.00
22047;BME280;11187;49.412;20.956;2022-09-28T05:04:42;93583.25;;;8.95;100.00
22047;BME280;11187;49.412;20.956;2022-09-28T05:07:36;93589.41;;;8.90;100.00
22047;BME280;11187;49.412;20.956;2022-09-28T05:10:09;93593.69;;;8.89;100.00
22047;BME280;11187;49.412;20.956;2022-09-28T05:12:57;93601.28;;;8.91;100.00
22047;BME280;11187;49.412;20.956;2022-09-28T05:15:30;93610.69;;;8.90;100.00
22047;BME280;11187;49.412;20.956;2022-09-28T05:18:17;93610.59;;;8.92;100.00
22047;BME280;11187;49.412;20.956;2022-09-28T05:20:50;93604.63;;;8.93;100.00
22047;BME280;11187;49.412;20.956;2022-09-28T05:23:38;93609.72;;;8.93;100.00
22047;BME280;11187;49.412;20.956;2022-09-28T05:26:12;93611.44;;;8.92;100.00
22047;BME280;11187;49.412;20.956;2022-09-28T05:29:05;93612.28;;;8.93;100.00
22047;BME280;11187;49.412;20.956;2022-09-28T05:31:59;93604.53;;;8.94;100.00
22047;BME280;11187;49.412;20.956;2022-09-28T05:34:33;93605.44;;;8.93;100.00
22047;BME280;11187;49.412;20.956;2022-09-28T05:37:20;93605.44;;;8.93;100.00
22047;BME280;11187;49.412;20.956;2022-09-28T05:39:53;93613.22;;;8.90;100.00
22047;BME280;11187;49.412;20.956;2022-09-28T05:42:40;93610.06;;;8.84;100.00
22047;BME280;11187;49.412;20.956;2022-09-28T05:45:28;93615.25;;;8.81;100.00
22047;BME280;11187;49.412;20.956;2022-09-28T05:48:22;93620.09;;;8.88;100.00
22047;BME280;11187;49.412;20.956;2022-09-28T05:50:56;93626.81;;;8.91;100.00
22047;BME280;11187;49.412;20.956;2022-09-28T05:53:49;93619.88;;;8.94;100.00
22047;BME280;11187;49.412;20.956;2022-09-28T05:56:29;93614.75;;;8.94;100.00
22047;BME280;11187;49.412;20.956;2022-09-28T05:59:23;93614.88;;;8.91;100.00
22047;BME280;11187;49.412;20.956;2022-09-28T06:01:56;93609.78;;;8.91;100.00
22047;BME280;11187;49.412;20.956;2022-09-28T06:04:50;93611.34;;;8.95;100.00
22047;BME280;11187;49.412;20.956;2022-09-28T06:07:23;93612.78;;;9.03;100.00
22047;BME280;11187;49.412;20.956;2022-09-28T06:10:10;93610.06;;;9.07;100.00
22047;BME280;11187;49.412;20.956;2022-09-28T06:12:43;93609.72;;;9.16;100.00
22047;BME280;11187;49.412;20.956;2022-09-28T06:15:37;93603.38;;;9.27;100.00
22047;BME280;11187;49.412;20.956;2022-09-28T06:18:34;93595.38;;;9.36;100.00
22047;BME280;11187;49.412;20.956;2022-09-28T06:21:07;93605.16;;;9.47;100.00
22047;BME280;11187;49.412;20.956;2022-09-28T06:24:02;93604.75;;;9.57;100.00
22047;BME280;11187;49.412;20.956;2022-09-28T06:26:35;93611.22;;;9.66;100.00
22047;BME280;11187;49.412;20.956;2022-09-28T06:29:29;93606.72;;;9.73;100.00
22047;BME280;11187;49.412;20.956;2022-09-28T06:32:05;93608.00;;;9.83;100.00
22047;BME280;11187;49.412;20.956;2022-09-28T06:34:52;93612.00;;;9.90;100.00
22047;BME280;11187;49.412;20.956;2022-09-28T06:37:25;93616.66;;;10.01;100.00
22047;BME280;11187;49.412;20.956;2022-09-28T06:40:12;93612.84;;;10.11;100.00
22047;BME280;11187;49.412;20.956;2022-09-28T06:42:59;93611.69;;;10.18;100.00
22047;BME280;11187;49.412;20.956;2022-09-28T06:45:55;93613.31;;;10.21;100.00
22047;BME280;11187;49.412;20.956;2022-09-28T06:48:28;93625.50;;;10.14;100.00
22047;BME280;11187;49.412;20.956;2022-09-28T06:51:22;93617.25;;;10.08;100.00
22047;BME280;11187;49.412;20.956;2022-09-28T06:53:56;93614.06;;;10.02;100.00
22047;BME280;11187;49.412;20.956;2022-09-28T06:56:43;93619.50;;;9.95;100.00
22047;BME280;11187;49.412;20.956;2022-09-28T06:59:19;93622.22;;;9.90;100.00
22047;BME280;11187;49.412;20.956;2022-09-28T07:02:09;93631.78;;;9.85;100.00
22047;BME280;11187;49.412;20.956;2022-09-28T07:04:49;93624.28;;;9.80;100.00
22047;BME280;11187;49.412;20.956;2022-09-28T07:07:42;93631.97;;;9.80;100.00
22047;BME280;11187;49.412;20.956;2022-09-28T07:10:46;93630.13;;;9.84;100.00
22047;BME280;11187;49.412;20.956;2022-09-28T07:13:41;93627.53;;;9.86;100.00
22047;BME280;11187;49.412;20.956;2022-09-28T07:16:16;93630.81;;;9.88;100.00
22047;BME280;11187;49.412;20.956;2022-09-28T07:19:08;93646.06;;;9.91;100.00
22047;BME280;11187;49.412;20.956;2022-09-28T07:21:41;93648.47;;;9.94;100.00
22047;BME280;11187;49.412;20.956;2022-09-28T07:24:35;93650.09;;;9.96;100.00
22047;BME280;11187;49.412;20.956;2022-09-28T07:27:15;93650.69;;;10.03;100.00
22047;BME280;11187;49.412;20.956;2022-09-28T07:30:00;93654.72;;;10.09;100.00
22047;BME280;11187;49.412;20.956;2022-09-28T07:32:41;93644.38;;;10.12;100.00
22047;BME280;11187;49.412;20.956;2022-09-28T07:35:21;93645.19;;;10.12;100.00
22047;BME280;11187;49.412;20.956;2022-09-28T07:38:06;93651.97;;;10.13;100.00
22047;BME280;11187;49.412;20.956;2022-09-28T07:40:39;93653.41;;;10.20;100.00
22047;BME280;11187;49.412;20.956;2022-09-28T07:43:45;93649.88;;;10.23;100.00
22047;BME280;11187;49.412;20.956;2022-09-28T07:46:40;93642.44;;;10.17;100.00
22047;BME280;11187;49.412;20.956;2022-09-28T07:49:34;93638.28;;;10.14;100.00
22047;BME280;11187;49.412;20.956;2022-09-28T07:52:28;93636.66;;;10.13;100.00
22047;BME280;11187;49.412;20.956;2022-09-28T07:55:02;93646.00;;;10.13;100.00
22047;BME280;11187;49.412;20.956;2022-09-28T07:57:54;93633.22;;;10.13;100.00
22047;BME280;11187;49.412;20.956;2022-09-28T08:00:27;93636.50;;;10.16;100.00
22047;BME280;11187;49.412;20.956;2022-09-28T08:03:19;93639.50;;;10.26;100.00
22047;BME280;11187;49.412;20.956;2022-09-28T08:06:02;93635.72;;;10.36;100.00
22047;BME280;11187;49.412;20.956;2022-09-28T08:08:51;93636.94;;;10.48;100.00
22047;BME280;11187;49.412;20.956;2022-09-28T08:11:28;93637.56;;;10.53;100.00
22047;BME280;11187;49.412;20.956;2022-09-28T08:14:15;93645.91;;;10.58;100.00
22047;BME280;11187;49.412;20.956;2022-09-28T08:16:48;93641.47;;;10.62;100.00
22047;BME280;11187;49.412;20.956;2022-09-28T08:19:35;93641.91;;;10.72;100.00
22047;BME280;11187;49.412;20.956;2022-09-28T08:22:26;93631.38;;;10.79;100.00
22047;BME280;11187;49.412;20.956;2022-09-28T08:25:13;93626.09;;;10.82;100.00
22047;BME280;11187;49.412;20.956;2022-09-28T08:27:46;93617.44;;;10.85;100.00
22047;BME280;11187;49.412;20.956;2022-09-28T08:30:33;93625.66;;;10.93;100.00
22047;BME280;11187;49.412;20.956;2022-09-28T08:33:06;93633.84;;;11.01;100.00
22047;BME280;11187;49.412;20.956;2022-09-28T08:35:55;93634.50;;;11.05;100.00
22047;BME280;11187;49.412;20.956;2022-09-28T08:38:30;93625.75;;;11.11;100.00
22047;BME280;11187;49.412;20.956;2022-09-28T08:47:00;93633.00;;;11.20;100.00
22047;BME280;11187;49.412;20.956;2022-09-28T08:49:40;93628.72;;;11.20;100.00
22047;BME280;11187;49.412;20.956;2022-09-28T08:52:33;93640.75;;;11.18;100.00
22047;BME280;11187;49.412;20.956;2022-09-28T08:55:14;93637.16;;;11.22;100.00
22047;BME280;11187;49.412;20.956;2022-09-28T08:58:14;93631.91;;;11.25;100.00
22047;BME280;11187;49.412;20.956;2022-09-28T09:00:51;93621.66;;;11.25;100.00
22047;BME280;11187;49.412;20.956;2022-09-28T09:03:38;93613.00;;;11.28;100.00
22047;BME280;11187;49.412;20.956;2022-09-28T09:06:32;93623.03;;;11.33;100.00
22047;BME280;11187;49.412;20.956;2022-09-28T09:15:48;93629.06;;;11.69;100.00
22047;BME280;11187;49.412;20.956;2022-09-28T09:21:45;93637.25;;;11.76;100.00
22047;BME280;11187;49.412;20.956;2022-09-28T09:30:13;93631.69;;;11.68;100.00
22047;BME280;11187;49.412;20.956;2022-09-28T09:45:02;93643.41;;;12.10;100.00
22047;BME280;11187;49.412;20.956;2022-09-28T09:48:06;93642.56;;;12.09;100.00
22047;BME280;11187;49.412;20.956;2022-09-28T09:50:47;93644.63;;;12.20;100.00
22047;BME280;11187;49.412;20.956;2022-09-28T09:53:41;93646.38;;;12.37;99.54
22047;BME280;11187;49.412;20.956;2022-09-28T09:56:25;93649.41;;;12.45;99.22
22047;BME280;11187;49.412;20.956;2022-09-28T09:59:20;93647.78;;;12.60;97.43
22047;BME280;11187;49.412;20.956;2022-09-28T10:01:55;93647.19;;;12.72;96.98
22047;BME280;11187;49.412;20.956;2022-09-28T10:04:43;93645.91;;;12.81;96.76
22047;BME280;11187;49.412;20.956;2022-09-28T10:07:32;93650.66;;;12.89;94.99
22047;BME280;11187;49.412;20.956;2022-09-28T10:10:37;93647.78;;;12.95;96.68
22047;BME280;11187;49.412;20.956;2022-09-28T10:13:10;93645.78;;;13.00;95.10
22047;BME280;11187;49.412;20.956;2022-09-28T10:16:05;93639.44;;;13.07;95.12
22047;BME280;11187;49.412;20.956;2022-09-28T10:18:59;93639.28;;;13.10;94.97
22047;BME280;11187;49.412;20.956;2022-09-28T10:21:53;93633.22;;;13.11;95.88
22047;BME280;11187;49.412;20.956;2022-09-28T10:24:33;93622.94;;;13.11;94.02
22047;BME280;11187;49.412;20.956;2022-09-28T10:27:30;93614.06;;;13.17;95.16
22047;BME280;11187;49.412;20.956;2022-09-28T10:30:24;93626.19;;;13.15;95.60
22047;BME280;11187;49.412;20.956;2022-09-28T10:32:58;93624.59;;;13.12;93.94
22047;BME280;11187;49.412;20.956;2022-09-28T10:35:44;93625.59;;;13.10;95.32
22047;BME280;11187;49.412;20.956;2022-09-28T10:38:22;93625.81;;;13.05;95.51
22047;BME280;11187;49.412;20.956;2022-09-28T10:41:15;93626.75;;;13.04;92.70
22047;BME280;11187;49.412;20.956;2022-09-28T10:44:15;93613.66;;;13.09;94.49
22047;BME280;11187;49.412;20.956;2022-09-28T10:47:14;93607.53;;;13.11;95.78
22047;BME280;11187;49.412;20.956;2022-09-28T10:49:49;93605.72;;;13.13;96.52
22047;BME280;11187;49.412;20.956;2022-09-28T10:52:38;93608.34;;;13.12;95.70
22047;BME280;11187;49.412;20.956;2022-09-28T10:55:26;93608.59;;;13.07;93.97
22047;BME280;11187;49.412;20.956;2022-09-28T10:57:59;93605.53;;;13.16;91.28
22047;BME280;11187;49.412;20.956;2022-09-28T11:00:46;93613.69;;;13.25;88.98
22047;BME280;11187;49.412;20.956;2022-09-28T11:03:25;93621.94;;;13.31;89.39
22047;BME280;11187;49.412;20.956;2022-09-28T11:06:25;93610.50;;;13.37;88.71
22047;BME280;11187;49.412;20.956;2022-09-28T11:09:25;93623.09;;;13.42;88.32
22047;BME280;11187;49.412;20.956;2022-09-28T11:12:03;93615.25;;;13.45;89.53
22047;BME280;11187;49.412;20.956;2022-09-28T11:15:00;93620.28;;;13.46;88.35
22047;BME280;11187;49.412;20.956;2022-09-28T11:17:38;93608.34;;;13.45;90.84
22047;BME280;11187;49.412;20.956;2022-09-28T11:20:33;93607.53;;;13.45;87.45
22047;BME280;11187;49.412;20.956;2022-09-28T11:23:29;93606.53;;;13.47;87.72
22047;BME280;11187;49.412;20.956;2022-09-28T11:26:23;93600.31;;;13.51;90.07
22047;BME280;11187;49.412;20.956;2022-09-28T11:29:41;93599.72;;;13.46;90.47
22047;BME280;11187;49.412;20.956;2022-09-28T11:32:16;93590.59;;;13.41;91.41
22047;BME280;11187;49.412;20.956;2022-09-28T11:35:02;93583.22;;;13.34;89.67
22047;BME280;11187;49.412;20.956;2022-09-28T11:38:15;93582.31;;;13.35;90.79
22047;BME280;11187;49.412;20.956;2022-09-28T11:44:39;93583.38;;;13.47;87.94
22047;BME280;11187;49.412;20.956;2022-09-28T11:53:39;93576.25;;;13.52;87.13
22047;BME280;11187;49.412;20.956;2022-09-28T11:56:40;93563.06;;;13.58;87.39
22047;BME280;11187;49.412;20.956;2022-09-28T11:59:20;93573.09;;;13.63;85.93
22047;BME280;11187;49.412;20.956;2022-09-28T12:05:37;93559.56;;;13.75;86.36
22047;BME280;11187;49.412;20.956;2022-09-28T12:08:11;93561.88;;;13.80;86.51
22047;BME280;11187;49.412;20.956;2022-09-28T12:13:41;93572.50;;;13.90;82.19
22047;BME280;11187;49.412;20.956;2022-09-28T12:16:43;93569.00;;;13.91;82.48
22047;BME280;11187;49.412;20.956;2022-09-28T12:25:39;93560.09;;;13.96;81.55
22047;BME280;11187;49.412;20.956;2022-09-28T12:31:16;93557.63;;;13.95;81.01
22047;BME280;11187;49.412;20.956;2022-09-28T12:34:12;93550.72;;;13.95;80.56
22047;BME280;11187;49.412;20.956;2022-09-28T12:45:47;93536.88;;;13.82;79.23
22047;BME280;11187;49.412;20.956;2022-09-28T13:07:29;93529.34;;;14.09;74.76
22047;BME280;11187;49.412;20.956;2022-09-28T13:10:39;93550.50;;;14.14;74.72
22047;BME280;11187;49.412;20.956;2022-09-28T13:16:42;93535.25;;;14.11;76.08
22047;BME280;11187;49.412;20.956;2022-09-28T13:19:40;93542.47;;;14.05;72.27
22047;BME280;11187;49.412;20.956;2022-09-28T13:25:25;93527.56;;;13.95;78.52
22047;BME280;11187;49.412;20.956;2022-09-28T13:28:17;93533.97;;;13.88;74.58
22047;BME280;11187;49.412;20.956;2022-09-28T13:30:54;93529.56;;;13.90;74.20
22047;BME280;11187;49.412;20.956;2022-09-28T13:33:50;93520.03;;;13.92;73.23
22047;BME280;11187;49.412;20.956;2022-09-28T13:36:45;93522.59;;;13.92;77.15
22047;BME280;11187;49.412;20.956;2022-09-28T13:45:47;93522.28;;;13.83;72.66
22047;BME280;11187;49.412;20.956;2022-09-28T13:48:47;93535.06;;;13.84;73.92
22047;BME280;11187;49.412;20.956;2022-09-28T13:54:40;93533.50;;;13.82;74.50
22047;BME280;11187;49.412;20.956;2022-09-28T14:02:46;93524.34;;;13.76;76.63
22047;BME280;11187;49.412;20.956;2022-09-28T14:06:04;93519.31;;;13.74;76.88
22047;BME280;11187;49.412;20.956;2022-09-28T14:08:45;93526.22;;;13.74;77.96
22047;BME280;11187;49.412;20.956;2022-09-28T14:12:02;93526.56;;;13.68;77.58
22047;BME280;11187;49.412;20.956;2022-09-28T14:14:50;93518.91;;;13.66;77.93
22047;BME280;11187;49.412;20.956;2022-09-28T14:17:53;93510.56;;;13.63;76.63
22047;BME280;11187;49.412;20.956;2022-09-28T14:20:30;93514.97;;;13.61;78.64
22047;BME280;11187;49.412;20.956;2022-09-28T14:26:35;93531.63;;;13.53;77.71
22047;BME280;11187;49.412;20.956;2022-09-28T14:29:33;93527.56;;;13.49;77.70
22047;BME280;11187;49.412;20.956;2022-09-28T14:35:31;93533.78;;;13.45;77.16
22047;BME280;11187;49.412;20.956;2022-09-28T14:38:46;93540.69;;;13.45;78.27
22047;BME280;11187;49.412;20.956;2022-09-28T14:42:07;93541.59;;;13.44;78.89
22047;BME280;11187;49.412;20.956;2022-09-28T14:59:57;93550.19;;;13.27;80.03
22047;BME280;11187;49.412;20.956;2022-09-28T15:02:34;93553.66;;;13.26;80.01
22047;BME280;11187;49.412;20.956;2022-09-28T15:05:26;93558.03;;;13.24;79.40
22047;BME280;11187;49.412;20.956;2022-09-28T15:08:00;93558.28;;;13.19;79.59
22047;BME280;11187;49.412;20.956;2022-09-28T15:10:54;93550.81;;;13.14;79.26
22047;BME280;11187;49.412;20.956;2022-09-28T15:14:03;93562.09;;;13.12;78.97
22047;BME280;11187;49.412;20.956;2022-09-28T15:16:59;93575.19;;;13.07;79.51
22047;BME280;11187;49.412;20.956;2022-09-28T15:22:45;93591.78;;;13.02;81.92
22047;BME280;11187;49.412;20.956;2022-09-28T15:25:39;93587.03;;;12.94;80.27
22047;BME280;11187;49.412;20.956;2022-09-28T15:28:35;93589.69;;;12.92;81.07
22047;BME280;11187;49.412;20.956;2022-09-28T15:31:33;93588.13;;;12.90;81.20
22047;BME280;11187;49.412;20.956;2022-09-28T15:34:34;93590.88;;;12.85;80.31
22047;BME280;11187;49.412;20.956;2022-09-28T15:37:25;93589.47;;;12.80;80.50
22047;BME280;11187;49.412;20.956;2022-09-28T15:40:30;93588.66;;;12.79;80.34
22047;BME280;11187;49.412;20.956;2022-09-28T15:43:25;93579.38;;;12.77;80.39
22047;BME280;11187;49.412;20.956;2022-09-28T15:46:19;93587.09;;;12.77;80.72
22047;BME280;11187;49.412;20.956;2022-09-28T15:52:42;93581.50;;;12.68;81.81
22047;BME280;11187;49.412;20.956;2022-09-28T15:55:34;93579.00;;;12.67;83.03
22047;BME280;11187;49.412;20.956;2022-09-28T16:01:23;93587.03;;;12.61;84.84
22047;BME280;11187;49.412;20.956;2022-09-28T16:03:58;93579.47;;;12.58;83.40
22047;BME280;11187;49.412;20.956;2022-09-28T16:07:03;93584.69;;;12.56;82.82
22047;BME280;11187;49.412;20.956;2022-09-28T16:13:14;93590.88;;;12.52;81.94
22047;BME280;11187;49.412;20.956;2022-09-28T16:15:58;93597.84;;;12.50;82.38
22047;BME280;11187;49.412;20.956;2022-09-28T16:18:46;93593.69;;;12.47;82.07
22047;BME280;11187;49.412;20.956;2022-09-28T16:24:35;93605.06;;;12.42;84.88
22047;BME280;11187;49.412;20.956;2022-09-28T16:27:29;93607.81;;;12.39;82.52
22047;BME280;11187;49.412;20.956;2022-09-28T16:30:33;93619.66;;;12.59;83.50
22047;BME280;11187;49.412;20.956;2022-09-28T16:33:29;93612.84;;;12.58;84.09
22047;BME280;11187;49.412;20.956;2022-09-28T16:36:12;93615.63;;;12.53;82.72
22047;BME280;11187;49.412;20.956;2022-09-28T16:38:59;93605.53;;;12.50;83.19
22047;BME280;11187;49.412;20.956;2022-09-28T16:41:33;93609.16;;;12.46;83.51
22047;BME280;11187;49.412;20.956;2022-09-28T16:44:28;93609.38;;;12.41;83.21
22047;BME280;11187;49.412;20.956;2022-09-28T16:47:22;93607.97;;;12.36;83.41
22047;BME280;11187;49.412;20.956;2022-09-28T16:50:20;93607.28;;;12.32;83.67
22047;BME280;11187;49.412;20.956;2022-09-28T16:53:00;93611.59;;;12.31;84.17
22047;BME280;11187;49.412;20.956;2022-09-28T16:56:14;93611.72;;;12.28;84.20
22047;BME280;11187;49.412;20.956;2022-09-28T16:59:09;93617.00;;;12.25;84.61
22047;BME280;11187;49.412;20.956;2022-09-28T17:01:42;93611.00;;;12.26;87.32
22047;BME280;11187;49.412;20.956;2022-09-28T17:04:28;93627.28;;;12.25;86.58
22047;BME280;11187;49.412;20.956;2022-09-28T17:07:02;93623.81;;;12.26;86.96
22047;BME280;11187;49.412;20.956;2022-09-28T17:09:55;93622.97;;;12.26;87.14
22047;BME280;11187;49.412;20.956;2022-09-28T17:12:29;93623.81;;;12.26;88.98
22047;BME280;11187;49.412;20.956;2022-09-28T17:15:15;93622.19;;;12.24;87.12
22047;BME280;11187;49.412;20.956;2022-09-28T17:17:51;93617.94;;;12.24;87.58
22047;BME280;11187;49.412;20.956;2022-09-28T17:20:47;93620.50;;;12.24;86.54